Time;durP1;ratioP1;P1;durP2;ratioP2;P2;SDS_P1;SDS_P2;PMS_P1;PMS_P2;Temp;Humidity;BMP_temperature;BMP_pressure;BME280_temperature;BME280_humidity;BME280_pressure;Samples;Min_cycle;Max_cycle;Signal;HPM_P1;HPM_P2
2021/03/03 00:00:25;;;;;;;76.53;31.60;;;;;;;3.04;100.00;102864.50;5222223;28;20032;-66
2021/03/03 00:02:55;;;;;;;91.40;32.67;;;;;;;2.96;100.00;102866.66;5221764;28;20112;-66
2021/03/03 00:05:26;;;;;;;86.13;36.45;;;;;;;2.90;100.00;102866.03;5221817;28;20021;-65
2021/03/03 00:07:56;;;;;;;95.10;36.60;;;;;;;2.90;100.00;102866.03;5222222;28;20025;-65
2021/03/03 00:10:27;;;;;;;96.47;39.80;;;;;;;2.87;100.00;102869.69;5221962;28;20025;-64
2021/03/03 00:12:57;;;;;;;98.03;37.55;;;;;;;2.81;100.00;102873.47;5221612;28;20021;-65
2021/03/03 00:15:28;;;;;;;93.80;35.60;;;;;;;2.80;100.00;102876.16;5219488;28;20029;-65
2021/03/03 00:17:58;;;;;;;91.53;37.47;;;;;;;2.78;100.00;102883.34;5214812;28;20025;-65
2021/03/03 00:20:28;;;;;;;90.65;34.95;;;;;;;2.79;100.00;102888.56;5221856;28;20040;-65
2021/03/03 00:22:59;;;;;;;79.07;32.75;;;;;;;2.78;100.00;102880.69;5221392;28;20104;-65
2021/03/03 00:25:29;;;;;;;81.68;35.03;;;;;;;2.76;100.00;102880.78;5221984;28;20037;-65
2021/03/03 00:28:00;;;;;;;95.13;37.55;;;;;;;2.74;100.00;102884.41;5221762;28;20032;-66
2021/03/03 00:30:30;;;;;;;80.05;34.90;;;;;;;2.71;100.00;102882.75;5221589;28;20028;-65
2021/03/03 00:33:01;;;;;;;88.15;36.22;;;;;;;2.69;100.00;102892.53;5206782;28;20380;-65
2021/03/03 00:35:31;;;;;;;90.10;33.83;;;;;;;2.69;100.00;102889.03;5237278;28;20029;-66
2021/03/03 00:38:02;;;;;;;74.43;32.05;;;;;;;2.66;100.00;102890.03;5221630;28;20100;-66
2021/03/03 00:40:32;;;;;;;88.65;35.05;;;;;;;2.66;100.00;102884.75;5223392;28;20031;-66
2021/03/03 00:43:03;;;;;;;82.20;35.28;;;;;;;2.67;100.00;102883.81;5224695;28;20029;-65
2021/03/03 00:45:34;;;;;;;88.80;34.60;;;;;;;2.67;100.00;102888.25;5225948;28;20048;-65
2021/03/03 00:48:05;;;;;;;83.50;33.20;;;;;;;2.65;100.00;102887.44;5226169;28;20459;-66
2021/03/03 00:50:35;;;;;;;88.40;35.45;;;;;;;2.63;100.00;102882.22;5225612;28;20159;-65
2021/03/03 00:53:13;;;;;;;89.78;34.90;;;;;;;2.62;100.00;102882.28;5225305;28;20032;-66
2021/03/03 00:55:50;;;;;;;91.20;34.80;;;;;;;2.68;100.00;102884.66;5224965;28;20037;-65
2021/03/03 00:58:20;;;;;;;80.40;31.65;;;;;;;2.66;100.00;102879.44;5220652;28;20100;-65
2021/03/03 01:00:51;;;;;;;83.80;33.70;;;;;;;2.62;100.00;102883.16;5224331;28;20564;-65
2021/03/03 01:03:21;;;;;;;92.53;35.67;;;;;;;2.59;100.00;102889.41;5224856;28;20470;-65
2021/03/03 01:05:52;;;;;;;99.93;35.75;;;;;;;2.58;100.00;102892.13;5225271;28;20021;-65
2021/03/03 01:08:22;;;;;;;96.60;37.38;;;;;;;2.59;100.00;102897.38;5225416;28;20071;-65
2021/03/03 01:10:53;;;;;;;96.95;38.13;;;;;;;2.58;100.00;102893.00;5225399;28;20525;-65
2021/03/03 01:13:23;;;;;;;88.60;35.33;;;;;;;2.63;100.00;102889.31;5224544;28;20469;-65
2021/03/03 01:15:54;;;;;;;85.55;34.63;;;;;;;2.62;100.00;102891.09;5219100;28;20025;-66
2021/03/03 01:18:24;;;;;;;88.35;34.63;;;;;;;2.58;100.00;102890.34;5220700;28;20481;-65
2021/03/03 01:20:55;;;;;;;85.82;33.50;;;;;;;2.56;100.00;102886.03;5225456;28;20029;-65
2021/03/03 01:23:26;;;;;;;93.93;36.00;;;;;;;2.53;100.00;102879.09;5224335;28;20063;-65
2021/03/03 01:25:56;;;;;;;93.72;35.15;;;;;;;2.50;100.00;102881.84;5225108;28;20044;-65
2021/03/03 01:28:27;;;;;;;89.63;34.55;;;;;;;2.49;100.00;102876.63;5224991;28;20576;-65
2021/03/03 01:30:57;;;;;;;89.63;36.45;;;;;;;2.47;100.00;102875.84;5223298;28;20385;-66
2021/03/03 01:33:29;;;;;;;98.82;37.38;;;;;;;2.47;100.00;102867.91;5210937;28;20477;-65
2021/03/03 01:36:00;;;;;;;86.00;35.38;;;;;;;2.47;100.00;102866.09;5224985;28;20051;-65
2021/03/03 01:38:30;;;;;;;86.38;36.17;;;;;;;2.47;100.00;102863.44;5224751;28;20029;-65
2021/03/03 01:41:01;;;;;;;86.57;34.35;;;;;;;2.47;100.00;102865.25;5224840;28;20076;-65
2021/03/03 01:43:32;;;;;;;78.07;32.30;;;;;;;2.45;100.00;102854.69;5223769;28;20025;-65
2021/03/03 01:46:02;;;;;;;75.55;29.83;;;;;;;2.46;100.00;102860.84;5224663;28;20021;-66
2021/03/03 01:48:33;;;;;;;84.78;32.65;;;;;;;2.43;100.00;102853.06;5224514;28;20036;-66
2021/03/03 01:51:04;;;;;;;81.47;31.85;;;;;;;2.42;100.00;102853.97;5224863;28;20021;-66
2021/03/03 01:53:34;;;;;;;66.63;31.40;;;;;;;2.42;100.00;102848.69;5223191;28;20020;-65
2021/03/03 01:56:05;;;;;;;72.95;30.70;;;;;;;2.42;100.00;102846.91;5223772;28;20032;-65
2021/03/03 01:58:36;;;;;;;83.03;33.28;;;;;;;2.43;100.00;102843.31;5224511;28;20086;-65
2021/03/03 02:01:06;;;;;;;87.00;33.35;;;;;;;2.42;100.00;102838.94;5224494;28;20057;-66
2021/03/03 02:03:39;;;;;;;89.03;32.88;;;;;;;2.46;100.00;102842.31;5224121;28;20040;-65
2021/03/03 02:06:33;;;;;;;84.28;32.30;;;;;;;2.51;100.00;102840.31;5224189;28;20111;-65
2021/03/03 02:09:14;;;;;;;79.50;31.70;;;;;;;2.53;100.00;102844.63;5224797;28;20032;-65
2021/03/03 02:12:06;;;;;;;65.05;29.23;;;;;;;2.56;100.00;102831.28;5224529;28;20024;-66
2021/03/03 02:14:53;;;;;;;73.40;30.08;;;;;;;2.58;100.00;102840.00;5223814;28;20028;-66
2021/03/03 02:17:30;;;;;;;91.10;34.15;;;;;;;2.61;100.00;102825.78;5212034;28;20384;-65
2021/03/03 02:20:06;;;;;;;96.43;35.92;;;;;;;2.64;100.00;102825.63;5224109;28;20029;-66
2021/03/03 02:22:45;;;;;;;;;;;;;;;2.66;100.00;102825.53;5240037;28;20025;-64
2021/03/03 02:25:25;;;;;;;88.38;32.85;;;;;;;2.67;100.00;102832.59;5223280;28;19981;-65
2021/03/03 02:27:59;;;;;;;89.90;36.10;;;;;;;2.65;100.00;102829.13;5223710;28;20029;-65
2021/03/03 02:30:32;;;;;;;100.45;35.42;;;;;;;2.68;100.00;102829.88;5224227;28;20025;-65
2021/03/03 02:33:03;;;;;;;76.60;32.40;;;;;;;2.70;100.00;102824.50;5216131;28;20090;-66
2021/03/03 02:35:34;;;;;;;87.45;33.70;;;;;;;2.68;100.00;102819.28;5223910;28;20375;-65
2021/03/03 02:38:06;;;;;;;74.35;32.92;;;;;;;2.65;100.00;102819.38;5223493;28;20075;-65
2021/03/03 02:40:40;;;;;;;88.20;35.35;;;;;;;2.66;100.00;102809.66;5223894;28;20460;-66
2021/03/03 02:43:14;;;;;;;83.57;33.42;;;;;;;2.65;100.00;102814.09;5223042;28;20456;-65
2021/03/03 02:45:47;;;;;;;79.97;32.53;;;;;;;2.67;100.00;102811.41;5221765;28;20032;-66
2021/03/03 02:48:18;;;;;;;63.75;29.83;;;;;;;2.68;100.00;102807.81;5223549;28;20021;-65
2021/03/03 02:50:50;;;;;;;72.50;32.65;;;;;;;2.68;100.00;102807.81;5223876;28;20025;-65
2021/03/03 02:53:21;;;;;;;81.93;33.58;;;;;;;2.67;100.00;102806.94;5223068;28;20023;-65
2021/03/03 02:55:52;;;;;;;82.97;31.63;;;;;;;2.67;100.00;102806.94;5223316;28;20033;-66
2021/03/03 02:58:33;;;;;;;77.53;30.98;;;;;;;2.65;100.00;102808.78;5223212;28;20347;-65
2021/03/03 03:01:08;;;;;;;72.13;29.92;;;;;;;2.63;100.00;102810.66;5210717;28;20047;-65
2021/03/03 03:03:46;;;;;;;77.90;31.88;;;;;;;2.59;100.00;102804.63;5222565;28;20032;-66
2021/03/03 03:06:31;;;;;;;86.47;30.60;;;;;;;2.61;100.00;102804.56;5223408;28;20195;-64
2021/03/03 03:09:14;;;;;;;75.15;31.75;;;;;;;2.63;100.00;102804.50;5223380;28;20029;-65
2021/03/03 03:11:48;;;;;;;78.50;30.70;;;;;;;2.63;100.00;102801.84;5223356;28;20100;-65
2021/03/03 03:14:24;;;;;;;68.97;30.48;;;;;;;2.66;100.00;102807.88;5222416;28;20047;-65
2021/03/03 03:16:59;;;;;;;77.10;31.48;;;;;;;2.67;100.00;102800.78;5211796;28;20025;-65
2021/03/03 03:19:39;;;;;;;77.93;31.23;;;;;;;2.70;100.00;102798.00;5222751;28;20048;-65
2021/03/03 03:22:14;;;;;;;81.95;30.88;;;;;;;2.68;100.00;102800.72;5222784;28;20322;-65
2021/03/03 03:24:46;;;;;;;66.43;29.40;;;;;;;2.69;100.00;102801.56;5222188;28;20370;-65
2021/03/03 03:27:17;;;;;;;70.28;30.17;;;;;;;2.71;100.00;102800.59;5219935;28;20036;-65
2021/03/03 03:29:48;;;;;;;94.47;35.20;;;;;;;2.73;100.00;102801.38;5220508;28;20487;-66
2021/03/03 03:32:19;;;;;;;74.63;31.73;;;;;;;2.75;100.00;102798.66;5209944;28;20022;-65
2021/03/03 03:34:50;;;;;;;68.25;28.50;;;;;;;2.75;100.00;102802.16;5220330;28;20094;-65
2021/03/03 03:37:21;;;;;;;68.55;28.75;;;;;;;2.77;100.00;102802.97;5222998;28;20024;-65
2021/03/03 03:39:52;;;;;;;68.68;29.45;;;;;;;2.77;100.00;102799.47;5222035;28;20532;-65
2021/03/03 03:42:24;;;;;;;71.00;30.35;;;;;;;2.74;100.00;102802.22;5221993;28;20112;-65
2021/03/03 03:44:57;;;;;;;76.18;29.15;;;;;;;2.72;100.00;102804.09;5222453;28;20421;-65
2021/03/03 03:47:28;;;;;;;72.00;29.20;;;;;;;2.68;100.00;102803.38;5222471;28;20025;-65
2021/03/03 03:50:02;;;;;;;95.65;30.95;;;;;;;2.68;100.00;102807.81;5222531;28;20108;-65
2021/03/03 03:52:33;;;;;;;76.88;29.25;;;;;;;2.68;100.00;102803.38;5221537;28;20043;-65
2021/03/03 03:55:04;;;;;;;91.15;31.63;;;;;;;2.69;100.00;102809.53;5222006;28;20485;-66
2021/03/03 03:57:47;;;;;;;81.03;33.25;;;;;;;2.71;100.00;102803.25;5222373;28;20028;-65
2021/03/03 04:00:20;;;;;;;87.30;33.67;;;;;;;2.73;100.00;102806.69;5222318;28;20052;-65
2021/03/03 04:02:51;;;;;;;73.82;30.77;;;;;;;2.78;100.00;102804.69;5222122;28;20023;-65
2021/03/03 04:05:22;;;;;;;66.60;26.98;;;;;;;2.79;100.00;102795.78;5221813;28;20029;-65
2021/03/03 04:07:52;;;;;;;71.93;28.65;;;;;;;2.72;100.00;102799.66;5222360;28;20025;-65
2021/03/03 04:10:26;;;;;;;65.25;27.13;;;;;;;2.74;100.00;102802.22;5237372;28;20032;-65
2021/03/03 04:12:57;;;;;;;57.47;26.92;;;;;;;2.75;100.00;102809.25;5221720;28;20032;-65
2021/03/03 04:15:28;;;;;;;67.82;29.23;;;;;;;2.77;100.00;102802.97;5218116;28;20060;-66
2021/03/03 04:17:58;;;;;;;71.57;28.98;;;;;;;2.78;100.00;102802.03;5215090;28;20036;-65
2021/03/03 04:20:28;;;;;;;76.85;32.63;;;;;;;2.79;100.00;102800.25;5221182;28;20025;-65
2021/03/03 04:22:59;;;;;;;72.88;31.77;;;;;;;2.78;100.00;102798.53;5221603;28;20070;-66
2021/03/03 04:25:29;;;;;;;72.03;27.13;;;;;;;2.73;100.00;102814.63;5221951;28;20481;-65
2021/03/03 04:28:00;;;;;;;62.47;26.33;;;;;;;2.76;100.00;102813.63;5221379;28;20025;-65
2021/03/03 04:30:31;;;;;;;71.95;28.33;;;;;;;2.78;100.00;102817.94;5237519;28;20089;-65
2021/03/03 04:33:02;;;;;;;74.55;30.88;;;;;;;2.78;100.00;102811.78;5213123;28;20446;-65
2021/03/03 04:35:32;;;;;;;78.35;30.33;;;;;;;2.80;100.00;102817.84;5222032;28;20087;-65
2021/03/03 04:38:03;;;;;;;71.80;28.17;;;;;;;2.81;100.00;102815.16;5221855;28;20029;-65
2021/03/03 04:40:34;;;;;;;69.97;29.50;;;;;;;2.83;100.00;102825.69;5221444;28;20036;-65
2021/03/03 04:43:04;;;;;;;63.00;29.00;;;;;;;2.82;100.00;102822.19;5221277;28;20082;-66
2021/03/03 04:45:35;;;;;;;70.47;27.65;;;;;;;2.81;100.00;102823.13;5221424;28;20025;-66
2021/03/03 04:48:06;;;;;;;67.38;30.02;;;;;;;2.80;100.00;102826.66;5222430;28;20064;-66
2021/03/03 04:50:37;;;;;;;66.80;29.05;;;;;;;2.79;100.00;102827.59;5221812;28;20506;-65
2021/03/03 04:53:08;;;;;;;63.88;27.65;;;;;;;2.77;100.00;102821.53;5220864;28;20260;-65
2021/03/03 04:55:38;;;;;;;64.57;27.17;;;;;;;2.74;100.00;102824.28;5221576;28;20040;-65
2021/03/03 04:58:09;;;;;;;67.50;29.02;;;;;;;2.72;100.00;102833.25;5221784;28;20033;-65
2021/03/03 05:00:39;;;;;;;74.13;29.60;;;;;;;2.67;100.00;102838.75;5221768;28;20035;-65
2021/03/03 05:03:10;;;;;;;66.20;28.17;;;;;;;2.65;100.00;102829.13;5221483;28;20477;-65
2021/03/03 05:05:40;;;;;;;70.00;27.17;;;;;;;2.60;100.00;102826.69;5221358;28;20439;-65
2021/03/03 05:08:11;;;;;;;66.28;27.98;;;;;;;2.56;100.00;102831.28;5221722;28;20052;-65
2021/03/03 05:10:41;;;;;;;70.72;28.98;;;;;;;2.55;100.00;102826.00;5221338;28;20048;-65
2021/03/03 05:13:14;;;;;;;74.30;30.52;;;;;;;2.56;100.00;102836.56;5220998;28;20448;-65
2021/03/03 05:15:45;;;;;;;72.07;31.02;;;;;;;2.61;100.00;102833.72;5220861;28;20047;-65
2021/03/03 05:18:15;;;;;;;71.30;29.27;;;;;;;2.67;100.00;102837.91;5221448;28;20186;-65
2021/03/03 05:20:45;;;;;;;80.75;31.20;;;;;;;2.68;100.00;102832.53;5222310;28;20021;-66
2021/03/03 05:23:31;;;;;;;83.70;30.25;;;;;;;2.71;100.00;102848.31;5220969;28;20152;-65
2021/03/03 05:26:04;;;;;;;66.45;27.50;;;;;;;2.75;100.00;102839.25;5221737;28;20033;-65
2021/03/03 05:28:35;;;;;;;68.95;29.05;;;;;;;2.75;100.00;102841.06;5223700;28;20546;-65
2021/03/03 05:31:05;;;;;;;63.00;27.17;;;;;;;2.76;100.00;102830.41;5222829;28;20025;-65
2021/03/03 05:33:36;;;;;;;71.40;30.35;;;;;;;2.81;100.00;102827.53;5212790;28;20043;-65
2021/03/03 05:36:07;;;;;;;78.35;29.33;;;;;;;2.79;100.00;102842.66;5225392;28;20024;-65
2021/03/03 05:38:40;;;;;;;66.40;28.13;;;;;;;2.90;100.00;102819.16;5225000;28;20424;-65
2021/03/03 05:41:10;;;;;;;70.53;28.65;;;;;;;2.96;100.00;102808.31;5224238;28;20104;-65
2021/03/03 05:43:41;;;;;;;69.55;30.25;;;;;;;2.94;100.00;102818.09;5224148;28;20032;-65
2021/03/03 05:46:12;;;;;;;69.53;29.27;;;;;;;2.91;100.00;102810.28;5224665;28;20031;-65
2021/03/03 05:48:48;;;;;;;81.05;29.65;;;;;;;2.96;100.00;102816.25;5225136;28;20031;-65
2021/03/03 05:51:19;;;;;;;75.30;30.42;;;;;;;2.98;100.00;102817.03;5224710;28;20063;-65
2021/03/03 05:53:50;;;;;;;68.07;29.15;;;;;;;2.99;100.00;102815.25;5224243;28;20099;-66
2021/03/03 05:56:22;;;;;;;63.55;28.38;;;;;;;3.00;100.00;102811.66;5224658;28;20124;-66
2021/03/03 05:58:53;;;;;;;63.58;27.52;;;;;;;3.02;100.00;102810.69;5224324;28;20017;-65
2021/03/03 06:01:24;;;;;;;60.45;27.77;;;;;;;3.01;100.00;102801.00;5224730;28;20035;-65
2021/03/03 06:03:56;;;;;;;72.53;29.90;;;;;;;3.00;100.00;102809.88;5223254;28;20079;-66
2021/03/03 06:06:26;;;;;;;72.53;27.67;;;;;;;3.00;100.00;102803.72;5224300;28;20052;-65
2021/03/03 06:08:57;;;;;;;65.03;28.33;;;;;;;2.94;100.00;102804.00;5224641;28;20025;-66
2021/03/03 06:11:27;;;;;;;66.80;29.17;;;;;;;2.90;100.00;102816.50;5224579;28;20017;-66
2021/03/03 06:13:59;;;;;;;70.60;27.85;;;;;;;2.92;100.00;102812.03;5223515;28;20031;-66
2021/03/03 06:16:30;;;;;;;79.20;30.27;;;;;;;3.03;100.00;102814.19;5223407;28;20040;-65
2021/03/03 06:19:01;;;;;;;71.65;28.48;;;;;;;3.07;100.00;102810.47;5224314;28;20029;-65
2021/03/03 06:21:32;;;;;;;81.68;29.55;;;;;;;3.03;100.00;102825.66;5224454;28;20063;-65
2021/03/03 06:24:06;;;;;;;73.80;29.67;;;;;;;2.95;100.00;102821.63;5224023;28;20556;-65
2021/03/03 06:26:56;;;;;;;73.38;29.02;;;;;;;2.89;100.00;102820.09;5224349;28;20029;-65
2021/03/03 06:29:28;;;;;;;70.30;28.33;;;;;;;2.83;100.00;102818.59;5223678;28;20024;-65
2021/03/03 06:32:02;;;;;;;85.72;30.27;;;;;;;2.79;100.00;102822.31;5214400;28;20081;-66
2021/03/03 06:34:33;;;;;;;74.32;29.75;;;;;;;2.78;100.00;102822.38;5218806;28;20059;-65
2021/03/03 06:37:04;;;;;;;71.95;30.67;;;;;;;2.77;100.00;102825.97;5223522;28;20025;-65
2021/03/03 06:39:36;;;;;;;65.13;28.50;;;;;;;2.79;100.00;102824.94;5223328;28;20029;-65
2021/03/03 06:42:10;;;;;;;86.75;32.55;;;;;;;2.84;100.00;102836.22;5224077;28;20029;-65
2021/03/03 06:44:46;;;;;;;80.10;31.98;;;;;;;2.91;100.00;102830.63;5223093;28;20115;-65
2021/03/03 06:47:16;;;;;;;87.82;33.00;;;;;;;2.92;100.00;102835.03;5223593;28;20019;-65
2021/03/03 06:49:49;;;;;;;78.95;31.83;;;;;;;2.90;100.00;102845.69;5223202;28;20385;-65
2021/03/03 06:52:40;;;;;;;71.57;30.77;;;;;;;2.91;100.00;102835.94;5223268;28;20024;-66
2021/03/03 06:55:12;;;;;;;99.35;32.72;;;;;;;2.93;100.00;102840.25;5222854;28;20032;-65
2021/03/03 06:57:42;;;;;;;75.70;28.40;;;;;;;2.96;100.00;102844.53;5223243;28;20132;-65
2021/03/03 07:00:13;;;;;;;74.97;29.23;;;;;;;2.97;100.00;102854.25;5222786;28;20114;-65
2021/03/03 07:02:44;;;;;;;78.53;31.38;;;;;;;2.99;100.00;102849.72;5223297;28;20021;-66
2021/03/03 07:05:15;;;;;;;78.60;31.38;;;;;;;3.11;100.00;102841.19;5222704;28;20520;-66
2021/03/03 07:08:00;;;;;;;79.70;30.90;;;;;;;3.16;100.00;102852.47;5223369;28;20025;-66
2021/03/03 07:10:31;;;;;;;67.07;28.13;;;;;;;3.21;100.00;102854.91;5222335;28;20106;-66
2021/03/03 07:13:02;;;;;;;76.35;31.70;;;;;;;3.23;100.00;102859.22;5222858;28;20278;-65
2021/03/03 07:15:32;;;;;;;73.60;28.98;;;;;;;3.29;100.00;102852.78;5219501;28;20493;-65
2021/03/03 07:18:03;;;;;;;78.25;30.70;;;;;;;3.34;100.00;102851.63;5216148;28;20029;-65
2021/03/03 07:20:43;;;;;;;64.80;29.08;;;;;;;3.40;100.00;102849.63;5222935;28;20516;-65
2021/03/03 07:23:14;;;;;;;77.15;30.45;;;;;;;3.49;100.00;102857.16;5222484;28;20021;-65
2021/03/03 07:25:46;;;;;;;71.15;30.73;;;;;;;3.62;100.00;102853.88;5222731;28;20031;-66
2021/03/03 07:28:16;;;;;;;72.70;31.45;;;;;;;3.79;100.00;102852.22;5222662;28;20021;-67
2021/03/03 07:30:47;;;;;;;71.13;29.83;;;;;;;3.90;100.00;102856.06;5223244;28;20491;-65
2021/03/03 07:33:18;;;;;;;73.60;30.30;;;;;;;4.01;100.00;102865.31;5207045;28;20507;-66
2021/03/03 07:35:49;;;;;;;72.43;30.80;;;;;;;4.15;100.00;102871.66;5222797;28;20112;-66
2021/03/03 07:38:20;;;;;;;76.47;30.08;;;;;;;4.27;100.00;102862.25;5222958;28;20451;-66
2021/03/03 07:40:51;;;;;;;73.38;31.38;;;;;;;4.37;100.00;102871.47;5222429;28;20027;-65
2021/03/03 07:43:25;;;;;;;81.85;33.17;;;;;;;4.48;100.00;102870.06;5222087;28;20029;-65
2021/03/03 07:45:58;;;;;;;74.25;30.15;;;;;;;4.62;100.00;102878.22;5221800;28;20029;-65
2021/03/03 07:48:31;;;;;;;75.90;30.98;;;;;;;4.72;100.00;102876.81;5222993;28;20025;-66
2021/03/03 07:51:06;;;;;;;73.55;29.65;;;;;;;4.83;100.00;102869.13;5221958;28;20028;-65
2021/03/03 07:53:39;;;;;;;62.72;28.13;;;;;;;4.92;100.00;102873.13;5222133;28;20029;-66
2021/03/03 07:56:11;;;;;;;69.57;31.98;;;;;;;4.97;100.00;102870.19;5221757;28;20083;-65
2021/03/03 07:58:42;;;;;;;64.57;29.40;;;;;;;5.10;100.00;102866.81;5222103;28;20021;-66
2021/03/03 08:01:13;;;;;;;79.30;30.30;;;;;;;5.24;100.00;102870.53;5222669;28;20045;-65
2021/03/03 08:03:46;;;;;;;70.38;31.45;;;;;;;5.34;100.00;102867.31;5221780;28;20504;-65
2021/03/03 08:06:20;;;;;;;70.70;29.92;;;;;;;5.49;100.00;102867.41;5222199;28;20074;-65
2021/03/03 08:09:06;;;;;;;65.57;30.60;;;;;;;5.68;100.00;102862.78;5222162;28;20024;-65
2021/03/03 08:11:37;;;;;;;;;;;;;;;5.82;100.00;102865.53;5222544;28;20493;-66
2021/03/03 08:14:29;;;;;;;69.80;29.70;;;;;;;6.05;100.00;102860.75;5221613;28;19915;-66
2021/03/03 08:17:02;;;;;;;72.57;30.98;;;;;;;6.21;100.00;102854.44;5211656;28;20021;-66
2021/03/03 08:19:49;;;;;;;64.68;30.05;;;;;;;6.35;100.00;102852.78;5222564;28;20021;-66
2021/03/03 08:22:21;;;;;;;68.68;30.85;;;;;;;6.50;100.00;102859.88;5222127;28;20041;-65
2021/03/03 08:24:51;;;;;;;74.85;33.75;;;;;;;6.69;100.00;102852.50;5221170;28;20025;-65
2021/03/03 08:27:40;;;;;;;70.90;31.27;;;;;;;6.87;100.00;102857.66;5221871;28;20036;-66
2021/03/03 08:30:17;;;;;;;74.18;32.22;;;;;;;7.00;100.00;102856.81;5222154;28;20063;-66
2021/03/03 08:32:47;;;;;;;75.90;31.23;;;;;;;7.17;100.00;102852.25;5207882;28;20025;-66
2021/03/03 08:35:38;;;;;;;69.45;30.63;;;;;;;7.40;100.00;102854.34;5221862;28;20089;-66
2021/03/03 08:38:16;;;;;;;78.15;28.67;;;;;;;7.61;100.00;102857.47;5221630;28;20032;-66
2021/03/03 08:40:46;;;;;;;72.50;29.48;;;;;;;7.82;100.00;102854.38;5221667;28;20389;-66
2021/03/03 08:43:37;;;;;;;74.55;28.35;;;;;;;8.07;100.00;102854.47;5221670;28;20029;-66
2021/03/03 08:46:28;;;;;;;69.38;30.27;;;;;;;8.29;100.00;102851.25;5221564;28;20517;-65
2021/03/03 08:48:59;;;;;;;66.43;29.02;;;;;;;8.50;100.00;102855.19;5221790;28;20405;-66
2021/03/03 08:51:32;;;;;;;64.10;29.05;;;;;;;8.75;100.00;102858.88;5221801;28;20028;-66
2021/03/03 08:54:06;;;;;;;69.30;30.77;;;;;;;8.99;100.00;102865.19;5221435;28;20031;-66
2021/03/03 08:56:38;;;;;;;68.32;30.45;;;;;;;9.15;100.00;102862.31;5221422;28;20049;-66
2021/03/03 08:59:27;;;;;;;63.47;28.63;;;;;;;9.31;100.00;102854.03;5221857;28;20021;-66
2021/03/03 09:02:06;;;;;;;72.93;29.67;;;;;;;9.40;100.00;102864.09;5223286;28;20048;-66
2021/03/03 09:04:45;;;;;;;66.43;26.75;;;;;;;9.62;100.00;102859.88;5225368;28;20721;-66
2021/03/03 09:07:19;;;;;;;65.28;27.75;;;;;;;9.78;100.00;102855.09;5225128;28;20060;-66
2021/03/03 09:09:53;;;;;;;68.47;28.30;;;;;;;9.86;100.00;102852.72;5225692;28;20493;-66
2021/03/03 09:12:25;;;;;;;64.97;28.00;;;;;;;9.97;100.00;102847.41;5225417;28;20021;-66
2021/03/03 09:14:58;;;;;;;67.22;27.85;;;;;;;10.15;100.00;102844.34;5225335;28;20017;-66
2021/03/03 09:17:31;;;;;;;62.60;27.10;;;;;;;10.30;100.00;102844.09;5224711;28;20013;-66
2021/03/03 09:20:12;;;;;;;73.68;28.92;;;;;;;10.55;100.00;102843.06;5225546;28;20055;-65
2021/03/03 09:22:44;;;;;;;74.07;29.45;;;;;;;10.73;100.00;102840.78;5225156;28;20036;-65
2021/03/03 09:25:19;;;;;;;73.28;30.27;;;;;;;10.82;100.00;102845.44;5224778;28;20021;-65
2021/03/03 09:27:52;;;;;;;80.65;31.33;;;;;;;10.96;100.00;102840.84;5224650;28;20059;-65
2021/03/03 09:30:25;;;;;;;77.55;33.35;;;;;;;11.02;100.00;102838.53;5225145;28;20090;-66
2021/03/03 09:32:56;;;;;;;75.35;32.03;;;;;;;11.11;100.00;102840.47;5210546;28;20013;-65
2021/03/03 09:35:28;;;;;;;82.75;34.33;;;;;;;11.23;100.00;102845.84;5225166;28;20789;-65
2021/03/03 09:37:59;;;;;;;71.43;29.38;;;;;;;11.32;100.00;102837.91;5224976;28;20017;-65
2021/03/03 09:40:33;;;;;;;80.20;29.48;;;;;;;11.45;100.00;102836.94;5224479;28;20044;-66
2021/03/03 09:43:03;;;;;;;78.40;35.97;;;;;;;11.57;100.00;102833.25;5224269;28;20494;-65
2021/03/03 09:45:34;;;;;;;65.05;29.65;;;;;;;11.71;100.00;102832.13;5224664;28;20036;-66
2021/03/03 09:48:05;;;;;;;64.25;28.52;;;;;;;11.70;100.00;102833.97;5225381;28;20025;-66
2021/03/03 09:50:35;;;;;;;62.75;28.70;;;;;;;11.78;100.00;102833.34;5225136;28;20025;-65
2021/03/03 09:53:06;;;;;;;69.05;29.30;;;;;;;11.94;100.00;102828.44;5223637;28;20032;-65
2021/03/03 09:55:37;;;;;;;65.32;27.90;;;;;;;12.01;100.00;102821.56;5224406;28;20123;-66
2021/03/03 09:58:09;;;;;;;66.00;25.75;;;;;;;12.14;100.00;102819.53;5224718;28;20075;-66
2021/03/03 10:00:40;;;;;;;65.60;27.17;;;;;;;12.28;100.00;102828.31;5224388;28;20028;-65
2021/03/03 10:03:14;;;;;;;58.10;26.70;;;;;;;12.35;100.00;102819.59;5224153;28;20079;-66
2021/03/03 10:05:53;;;;;;;58.47;25.73;;;;;;;12.73;100.00;102825.38;5224295;28;20027;-66
2021/03/03 10:08:25;;;;;;;60.05;26.98;;;;;;;12.74;100.00;102816.31;5224162;28;20025;-66
2021/03/03 10:10:56;;;;;;;66.60;26.88;;;;;;;12.87;100.00;102822.34;5224274;28;20021;-66
2021/03/03 10:13:27;;;;;;;71.07;27.20;;;;;;;12.97;100.00;102828.63;5223188;28;20478;-65
2021/03/03 10:15:57;;;;;;;63.22;28.05;;;;;;;13.25;100.00;102826.22;5216917;28;20450;-66
2021/03/03 10:18:28;;;;;;;61.80;26.17;;;;;;;13.15;100.00;102818.06;5221169;28;20104;-66
2021/03/03 10:20:59;;;;;;;66.50;27.40;;;;;;;13.23;100.00;102822.81;5224945;28;20029;-66
2021/03/03 10:23:33;;;;;;;54.13;25.48;;;;;;;13.38;100.00;102826.84;5223557;28;20392;-66
2021/03/03 10:26:06;;;;;;;64.25;26.33;;;;;;;13.57;100.00;102820.69;5223808;28;20337;-66
2021/03/03 10:28:37;;;;;;;54.80;25.02;;;;;;;13.77;100.00;102822.44;5224000;28;20075;-66
2021/03/03 10:31:18;;;;;;;66.13;27.30;;;;;;;13.80;100.00;102826.69;5221173;28;20017;-66
2021/03/03 10:33:49;;;;;;;59.67;26.50;;;;;;;13.92;100.00;102834.53;5213461;28;20438;-66
2021/03/03 10:36:21;;;;;;;71.07;27.42;;;;;;;13.87;100.00;102828.69;5223504;28;20055;-66
2021/03/03 10:38:54;;;;;;;55.20;25.35;;;;;;;13.98;100.00;102825.00;5223884;28;20020;-66
2021/03/03 10:41:28;;;;;;;68.35;26.98;;;;;;;14.05;100.00;102828.84;5223632;28;20100;-66
2021/03/03 10:44:01;;;;;;;59.65;25.50;;;;;;;14.22;100.00;102830.00;5222978;28;20162;-66
2021/03/03 10:46:42;;;;;;;67.63;25.73;;;;;;;14.27;100.00;102830.44;5223605;28;20025;-66
2021/03/03 10:49:15;;;;;;;68.65;26.90;;;;;;;14.48;100.00;102835.69;5223151;28;20393;-66
2021/03/03 10:51:46;;;;;;;63.35;26.38;;;;;;;14.71;93.72;102834.41;5223885;28;20481;-66
2021/03/03 10:54:29;;;;;;;58.85;25.95;;;;;;;14.58;100.00;102835.69;5223029;28;20029;-67
2021/03/03 10:57:05;;;;;;;63.53;26.17;;;;;;;14.64;100.00;102835.09;5224249;28;20036;-66
2021/03/03 10:59:37;;;;;;;63.28;24.40;;;;;;;14.72;100.00;102819.88;5223196;28;20389;-67
2021/03/03 11:02:09;;;;;;;61.50;24.45;;;;;;;14.97;92.54;102820.25;5223701;28;20382;-67
2021/03/03 11:04:42;;;;;;;59.20;25.35;;;;;;;15.06;90.54;102822.06;5222944;28;20086;-67
2021/03/03 11:07:16;;;;;;;57.88;24.85;;;;;;;15.09;88.79;102808.25;5223056;28;20028;-67
2021/03/03 11:09:52;;;;;;;56.45;25.20;;;;;;;15.24;87.34;102816.72;5223404;28;20389;-66
2021/03/03 11:12:24;;;;;;;61.60;24.77;;;;;;;15.31;86.04;102809.69;5209839;28;20163;-66
2021/03/03 11:14:55;;;;;;;60.90;23.95;;;;;;;15.37;83.08;102803.72;5222981;28;20143;-67
2021/03/03 11:17:25;;;;;;;61.50;25.02;;;;;;;15.42;80.01;102801.41;5213099;28;20029;-67
2021/03/03 11:19:55;;;;;;;59.13;24.13;;;;;;;15.60;81.80;102804.13;5222952;28;20028;-67
2021/03/03 11:22:26;;;;;;;58.72;24.77;;;;;;;15.64;84.89;102800.16;5222276;28;20393;-67
2021/03/03 11:24:56;;;;;;;53.75;24.20;;;;;;;15.80;76.06;102797.63;5221629;28;20427;-66
2021/03/03 11:27:28;;;;;;;60.92;25.17;;;;;;;15.75;72.78;102790.97;5222930;28;20363;-67
2021/03/03 11:29:59;;;;;;;53.38;23.77;;;;;;;15.91;76.42;102793.84;5222974;28;20040;-67
2021/03/03 11:32:29;;;;;;;67.78;24.88;;;;;;;16.03;67.79;102789.06;5209449;28;20021;-67
2021/03/03 11:35:00;;;;;;;59.55;25.15;;;;;;;16.07;72.74;102787.75;5220951;28;20489;-67